sensor_id;sensor_type;location;lat;lon;timestamp;temperature;humidity
67196;DHT22;54122;53.538;49.366;2022-10-31T00:01:19;8.30;93.60
67196;DHT22;54122;53.538;49.366;2022-10-31T00:03:47;8.30;93.50
67196;DHT22;54122;53.538;49.366;2022-10-31T00:06:13;8.30;93.50
67196;DHT22;54122;53.538;49.366;2022-10-31T00:08:40;8.40;93.40
67196;DHT22;54122;53.538;49.366;2022-10-31T00:11:09;8.40;93.40
67196;DHT22;54122;53.538;49.366;2022-10-31T00:13:36;8.40;93.40
67196;DHT22;54122;53.538;49.366;2022-10-31T00:16:02;8.40;93.20
67196;DHT22;54122;53.538;49.366;2022-10-31T00:18:28;8.40;93.10
67196;DHT22;54122;53.538;49.366;2022-10-31T00:21:02;8.40;93.50
67196;DHT22;54122;53.538;49.366;2022-10-31T00:23:28;8.40;93.10
67196;DHT22;54122;53.538;49.366;2022-10-31T00:26:03;8.40;92.80
67196;DHT22;54122;53.538;49.366;2022-10-31T00:28:29;8.40;92.70
67196;DHT22;54122;53.538;49.366;2022-10-31T00:31:00;8.40;92.50
67196;DHT22;54122;53.538;49.366;2022-10-31T00:33:27;8.40;92.00
67196;DHT22;54122;53.538;49.366;2022-10-31T00:35:53;8.30;91.50
67196;DHT22;54122;53.538;49.366;2022-10-31T00:38:19;8.20;90.80
67196;DHT22;54122;53.538;49.366;2022-10-31T00:40:45;8.10;90.30
67196;DHT22;54122;53.538;49.366;2022-10-31T00:43:12;8.10;90.30
67196;DHT22;54122;53.538;49.366;2022-10-31T00:45:38;8.00;89.70
67196;DHT22;54122;53.538;49.366;2022-10-31T00:48:04;7.90;88.10
67196;DHT22;54122;53.538;49.366;2022-10-31T00:50:30;7.80;87.40
67196;DHT22;54122;53.538;49.366;2022-10-31T00:52:57;7.70;87.30
67196;DHT22;54122;53.538;49.366;2022-10-31T00:55:23;7.60;87.40
67196;DHT22;54122;53.538;49.366;2022-10-31T00:57:49;7.50;87.70
67196;DHT22;54122;53.538;49.366;2022-10-31T01:00:16;7.50;88.30
67196;DHT22;54122;53.538;49.366;2022-10-31T01:02:42;7.40;88.20
67196;DHT22;54122;53.538;49.366;2022-10-31T01:05:09;7.30;88.40
67196;DHT22;54122;53.538;49.366;2022-10-31T01:07:39;7.30;89.00
67196;DHT22;54122;53.538;49.366;2022-10-31T01:10:07;7.20;89.00
67196;DHT22;54122;53.538;49.366;2022-10-31T01:12:41;7.20;89.10
67196;DHT22;54122;53.538;49.366;2022-10-31T01:15:09;7.10;89.30
67196;DHT22;54122;53.538;49.366;2022-10-31T01:17:36;7.00;89.60
67196;DHT22;54122;53.538;49.366;2022-10-31T01:20:03;7.00;89.70
67196;DHT22;54122;53.538;49.366;2022-10-31T01:22:30;6.90;89.70
67196;DHT22;54122;53.538;49.366;2022-10-31T01:24:56;6.90;89.60
67196;DHT22;54122;53.538;49.366;2022-10-31T01:27:22;6.80;89.50
67196;DHT22;54122;53.538;49.366;2022-10-31T01:29:48;6.80;89.60
67196;DHT22;54122;53.538;49.366;2022-10-31T01:32:15;6.70;89.20
67196;DHT22;54122;53.538;49.366;2022-10-31T01:34:42;6.70;89.40
67196;DHT22;54122;53.538;49.366;2022-10-31T01:37:08;6.60;89.50
67196;DHT22;54122;53.538;49.366;2022-10-31T01:39:34;6.60;89.60
67196;DHT22;54122;53.538;49.366;2022-10-31T01:42:00;6.60;89.80
67196;DHT22;54122;53.538;49.366;2022-10-31T01:47:05;6.50;90.00
67196;DHT22;54122;53.538;49.366;2022-10-31T01:49:41;6.40;89.80
67196;DHT22;54122;53.538;49.366;2022-10-31T01:52:38;6.40;89.60
67196;DHT22;54122;53.538;49.366;2022-10-31T01:55:12;6.40;88.90
67196;DHT22;54122;53.538;49.366;2022-10-31T01:57:42;6.30;88.00
67196;DHT22;54122;53.538;49.366;2022-10-31T02:00:11;6.20;87.10
67196;DHT22;54122;53.538;49.366;2022-10-31T02:02:37;6.10;86.50
67196;DHT22;54122;53.538;49.366;2022-10-31T02:05:10;6.10;86.50
67196;DHT22;54122;53.538;49.366;2022-10-31T02:07:48;6.10;86.10
67196;DHT22;54122;53.538;49.366;2022-10-31T02:10:16;6.10;86.40
67196;DHT22;54122;53.538;49.366;2022-10-31T02:12:44;6.00;86.30
67196;DHT22;54122;53.538;49.366;2022-10-31T02:15:11;5.90;86.10
67196;DHT22;54122;53.538;49.366;2022-10-31T02:17:38;5.90;85.80
67196;DHT22;54122;53.538;49.366;2022-10-31T02:28:51;5.80;86.20
67196;DHT22;54122;53.538;49.366;2022-10-31T02:36:43;5.70;86.80
67196;DHT22;54122;53.538;49.366;2022-10-31T02:39:22;5.70;86.80
67196;DHT22;54122;53.538;49.366;2022-10-31T02:47:28;5.60;87.20
67196;DHT22;54122;53.538;49.366;2022-10-31T02:50:00;5.50;87.40
67196;DHT22;54122;53.538;49.366;2022-10-31T02:52:29;5.50;87.60
67196;DHT22;54122;53.538;49.366;2022-10-31T02:54:56;5.50;87.10
67196;DHT22;54122;53.538;49.366;2022-10-31T02:57:29;5.40;85.60
67196;DHT22;54122;53.538;49.366;2022-10-31T03:00:05;5.30;84.80
67196;DHT22;54122;53.538;49.366;2022-10-31T03:02:41;5.20;83.70
67196;DHT22;54122;53.538;49.366;2022-10-31T03:13:49;4.70;83.80
67196;DHT22;54122;53.538;49.366;2022-10-31T03:19:09;4.40;85.10
67196;DHT22;54122;53.538;49.366;2022-10-31T03:24:07;4.30;85.10
67196;DHT22;54122;53.538;49.366;2022-10-31T03:26:38;4.20;85.00
67196;DHT22;54122;53.538;49.366;2022-10-31T03:29:06;4.30;84.60
67196;DHT22;54122;53.538;49.366;2022-10-31T03:31:50;4.30;84.70
67196;DHT22;54122;53.538;49.366;2022-10-31T03:34:19;4.30;84.70
67196;DHT22;54122;53.538;49.366;2022-10-31T03:36:49;4.40;84.50
67196;DHT22;54122;53.538;49.366;2022-10-31T03:39:18;4.40;84.10
67196;DHT22;54122;53.538;49.366;2022-10-31T03:41:59;4.50;83.60
67196;DHT22;54122;53.538;49.366;2022-10-31T03:44:28;4.50;83.60
67196;DHT22;54122;53.538;49.366;2022-10-31T03:46:55;4.50;84.00
67196;DHT22;54122;53.538;49.366;2022-10-31T03:49:22;4.50;83.90
67196;DHT22;54122;53.538;49.366;2022-10-31T03:51:55;4.50;83.90
67196;DHT22;54122;53.538;49.366;2022-10-31T03:59:42;4.60;83.40
67196;DHT22;54122;53.538;49.366;2022-10-31T04:02:14;4.60;83.20
67196;DHT22;54122;53.538;49.366;2022-10-31T04:04:43;4.60;83.40
67196;DHT22;54122;53.538;49.366;2022-10-31T04:07:11;4.60;82.60
67196;DHT22;54122;53.538;49.366;2022-10-31T04:09:41;4.70;82.50
67196;DHT22;54122;53.538;49.366;2022-10-31T04:12:08;4.60;82.40
67196;DHT22;54122;53.538;49.366;2022-10-31T04:14:39;4.60;82.40
67196;DHT22;54122;53.538;49.366;2022-10-31T04:17:11;4.60;82.40
67196;DHT22;54122;53.538;49.366;2022-10-31T04:19:39;4.60;82.10
67196;DHT22;54122;53.538;49.366;2022-10-31T04:22:05;4.60;82.40
67196;DHT22;54122;53.538;49.366;2022-10-31T04:24:31;4.60;82.10
67196;DHT22;54122;53.538;49.366;2022-10-31T04:26:58;4.70;81.90
67196;DHT22;54122;53.538;49.366;2022-10-31T04:29:24;4.80;82.30
67196;DHT22;54122;53.538;49.366;2022-10-31T04:31:50;4.80;82.00
67196;DHT22;54122;53.538;49.366;2022-10-31T04:34:16;4.80;81.60
67196;DHT22;54122;53.538;49.366;2022-10-31T04:36:42;4.80;81.40
67196;DHT22;54122;53.538;49.366;2022-10-31T04:39:08;4.80;80.80
67196;DHT22;54122;53.538;49.366;2022-10-31T04:41:35;4.80;80.60
67196;DHT22;54122;53.538;49.366;2022-10-31T04:44:01;4.80;80.80
67196;DHT22;54122;53.538;49.366;2022-10-31T04:46:27;4.80;81.20
67196;DHT22;54122;53.538;49.366;2022-10-31T04:48:53;4.80;80.80
67196;DHT22;54122;53.538;49.366;2022-10-31T04:51:19;4.80;80.50
67196;DHT22;54122;53.538;49.366;2022-10-31T04:53:45;4.90;80.80
67196;DHT22;54122;53.538;49.366;2022-10-31T04:56:11;4.90;81.20
67196;DHT22;54122;53.538;49.366;2022-10-31T04:58:37;5.00;80.60
67196;DHT22;54122;53.538;49.366;2022-10-31T05:01:04;5.00;80.50
67196;DHT22;54122;53.538;49.366;2022-10-31T05:03:30;5.00;80.50
67196;DHT22;54122;53.538;49.366;2022-10-31T05:05:56;5.10;79.80
67196;DHT22;54122;53.538;49.366;2022-10-31T05:08:22;5.00;80.30
67196;DHT22;54122;53.538;49.366;2022-10-31T05:10:48;5.00;79.80
67196;DHT22;54122;53.538;49.366;2022-10-31T05:13:14;5.00;79.30
67196;DHT22;54122;53.538;49.366;2022-10-31T05:15:41;5.00;79.00
67196;DHT22;54122;53.538;49.366;2022-10-31T05:18:07;5.00;79.10
67196;DHT22;54122;53.538;49.366;2022-10-31T05:20:34;4.90;78.60
67196;DHT22;54122;53.538;49.366;2022-10-31T05:23:00;4.90;78.20
67196;DHT22;54122;53.538;49.366;2022-10-31T05:25:27;4.90;77.50
67196;DHT22;54122;53.538;49.366;2022-10-31T05:27:55;4.90;78.30
67196;DHT22;54122;53.538;49.366;2022-10-31T05:30:27;5.00;78.40
67196;DHT22;54122;53.538;49.366;2022-10-31T05:32:54;5.10;77.90
67196;DHT22;54122;53.538;49.366;2022-10-31T05:35:28;5.10;77.20
67196;DHT22;54122;53.538;49.366;2022-10-31T05:37:55;5.20;76.20
67196;DHT22;54122;53.538;49.366;2022-10-31T05:40:22;5.20;76.30
67196;DHT22;54122;53.538;49.366;2022-10-31T05:42:51;5.20;76.00
67196;DHT22;54122;53.538;49.366;2022-10-31T05:45:18;5.30;76.20
67196;DHT22;54122;53.538;49.366;2022-10-31T05:47:55;5.30;76.20
67196;DHT22;54122;53.538;49.366;2022-10-31T05:50:22;5.40;75.90
67196;DHT22;54122;53.538;49.366;2022-10-31T05:53:04;5.40;75.40
67196;DHT22;54122;53.538;49.366;2022-10-31T05:55:31;5.40;74.80
67196;DHT22;54122;53.538;49.366;2022-10-31T05:57:58;5.40;74.70
67196;DHT22;54122;53.538;49.366;2022-10-31T06:00:25;5.50;74.40
67196;DHT22;54122;53.538;49.366;2022-10-31T06:02:59;5.50;73.60
67196;DHT22;54122;53.538;49.366;2022-10-31T06:05:26;5.60;72.90
67196;DHT22;54122;53.538;49.366;2022-10-31T06:07:52;5.60;72.50
67196;DHT22;54122;53.538;49.366;2022-10-31T06:10:18;5.70;72.20
67196;DHT22;54122;53.538;49.366;2022-10-31T06:12:47;5.70;72.40
67196;DHT22;54122;53.538;49.366;2022-10-31T06:15:14;5.80;72.00
67196;DHT22;54122;53.538;49.366;2022-10-31T06:17:40;5.90;71.70
67196;DHT22;54122;53.538;49.366;2022-10-31T06:20:07;6.00;71.40
67196;DHT22;54122;53.538;49.366;2022-10-31T06:22:34;6.10;71.40
67196;DHT22;54122;53.538;49.366;2022-10-31T06:25:00;6.20;71.20
67196;DHT22;54122;53.538;49.366;2022-10-31T06:27:26;6.20;69.60
67196;DHT22;54122;53.538;49.366;2022-10-31T06:29:52;6.20;68.90
67196;DHT22;54122;53.538;49.366;2022-10-31T06:32:18;6.20;68.90
67196;DHT22;54122;53.538;49.366;2022-10-31T06:34:45;6.30;68.40
67196;DHT22;54122;53.538;49.366;2022-10-31T06:37:15;6.40;68.10
67196;DHT22;54122;53.538;49.366;2022-10-31T06:39:41;6.50;68.00
67196;DHT22;54122;53.538;49.366;2022-10-31T06:42:07;6.60;66.60
67196;DHT22;54122;53.538;49.366;2022-10-31T06:44:33;6.50;66.10
67196;DHT22;54122;53.538;49.366;2022-10-31T06:46:59;6.50;66.20
67196;DHT22;54122;53.538;49.366;2022-10-31T06:49:26;6.50;66.70
67196;DHT22;54122;53.538;49.366;2022-10-31T06:51:52;6.60;66.70
67196;DHT22;54122;53.538;49.366;2022-10-31T06:54:18;6.70;66.30
67196;DHT22;54122;53.538;49.366;2022-10-31T06:56:47;6.70;65.30
67196;DHT22;54122;53.538;49.366;2022-10-31T06:59:14;6.60;65.30
67196;DHT22;54122;53.538;49.366;2022-10-31T07:01:41;6.60;65.80
67196;DHT22;54122;53.538;49.366;2022-10-31T07:04:11;6.50;65.00
67196;DHT22;54122;53.538;49.366;2022-10-31T07:06:37;6.40;65.30
67196;DHT22;54122;53.538;49.366;2022-10-31T07:09:04;6.40;65.50
67196;DHT22;54122;53.538;49.366;2022-10-31T07:11:30;6.30;65.60
67196;DHT22;54122;53.538;49.366;2022-10-31T07:13:56;6.40;65.70
67196;DHT22;54122;53.538;49.366;2022-10-31T07:16:22;6.40;65.50
67196;DHT22;54122;53.538;49.366;2022-10-31T07:18:48;6.40;65.70
67196;DHT22;54122;53.538;49.366;2022-10-31T07:21:15;6.50;65.70
67196;DHT22;54122;53.538;49.366;2022-10-31T07:23:42;6.60;65.50
67196;DHT22;54122;53.538;49.366;2022-10-31T07:26:09;6.90;65.40
67196;DHT22;54122;53.538;49.366;2022-10-31T07:28:36;7.10;66.40
67196;DHT22;54122;53.538;49.366;2022-10-31T07:31:02;7.50;64.70
67196;DHT22;54122;53.538;49.366;2022-10-31T07:33:28;7.60;64.10
67196;DHT22;54122;53.538;49.366;2022-10-31T07:35:54;7.60;63.50
67196;DHT22;54122;53.538;49.366;2022-10-31T07:38:20;7.70;62.70
67196;DHT22;54122;53.538;49.366;2022-10-31T07:40:50;7.80;61.70
67196;DHT22;54122;53.538;49.366;2022-10-31T07:43:18;7.60;60.50
67196;DHT22;54122;53.538;49.366;2022-10-31T07:45:49;7.30;60.50
67196;DHT22;54122;53.538;49.366;2022-10-31T07:48:16;7.30;60.70
67196;DHT22;54122;53.538;49.366;2022-10-31T07:50:42;7.40;60.40
67196;DHT22;54122;53.538;49.366;2022-10-31T07:53:13;7.40;60.20
67196;DHT22;54122;53.538;49.366;2022-10-31T07:55:39;7.20;60.20
67196;DHT22;54122;53.538;49.366;2022-10-31T07:58:09;7.00;61.70
67196;DHT22;54122;53.538;49.366;2022-10-31T08:00:36;7.50;62.40
67196;DHT22;54122;53.538;49.366;2022-10-31T08:03:08;8.30;60.60
67196;DHT22;54122;53.538;49.366;2022-10-31T08:05:36;9.20;58.00
67196;DHT22;54122;53.538;49.366;2022-10-31T08:08:03;9.80;55.60
67196;DHT22;54122;53.538;49.366;2022-10-31T08:10:30;10.20;53.30
67196;DHT22;54122;53.538;49.366;2022-10-31T08:13:02;10.00;52.60
67196;DHT22;54122;53.538;49.366;2022-10-31T08:15:29;9.60;53.30
67196;DHT22;54122;53.538;49.366;2022-10-31T08:17:55;9.60;53.30
67196;DHT22;54122;53.538;49.366;2022-10-31T08:20:22;10.20;54.20
67196;DHT22;54122;53.538;49.366;2022-10-31T08:23:00;11.20;51.60
67196;DHT22;54122;53.538;49.366;2022-10-31T08:25:28;11.40;49.40
67196;DHT22;54122;53.538;49.366;2022-10-31T08:27:55;10.70;48.50
67196;DHT22;54122;53.538;49.366;2022-10-31T08:30:24;10.00;50.50
67196;DHT22;54122;53.538;49.366;2022-10-31T08:33:06;9.60;51.70
67196;DHT22;54122;53.538;49.366;2022-10-31T08:35:33;9.20;52.60
67196;DHT22;54122;53.538;49.366;2022-10-31T08:37:59;9.10;54.10
67196;DHT22;54122;53.538;49.366;2022-10-31T08:40:27;9.00;54.20
67196;DHT22;54122;53.538;49.366;2022-10-31T08:43:08;8.90;53.50
67196;DHT22;54122;53.538;49.366;2022-10-31T08:45:36;8.60;53.90
67196;DHT22;54122;53.538;49.366;2022-10-31T08:48:05;8.60;54.70
67196;DHT22;54122;53.538;49.366;2022-10-31T08:50:33;8.60;54.50
67196;DHT22;54122;53.538;49.366;2022-10-31T08:53:14;8.70;54.80
67196;DHT22;54122;53.538;49.366;2022-10-31T08:55:42;8.60;54.90
67196;DHT22;54122;53.538;49.366;2022-10-31T08:58:17;8.30;55.20
67196;DHT22;54122;53.538;49.366;2022-10-31T09:00:44;8.00;55.20
67196;DHT22;54122;53.538;49.366;2022-10-31T09:03:13;7.90;55.20
67196;DHT22;54122;53.538;49.366;2022-10-31T09:05:39;7.80;54.90
67196;DHT22;54122;53.538;49.366;2022-10-31T09:08:06;7.70;54.90
67196;DHT22;54122;53.538;49.366;2022-10-31T09:10:34;7.70;54.80
67196;DHT22;54122;53.538;49.366;2022-10-31T09:13:04;7.70;55.20
67196;DHT22;54122;53.538;49.366;2022-10-31T09:15:36;7.60;55.60
67196;DHT22;54122;53.538;49.366;2022-10-31T09:18:05;7.60;56.10
67196;DHT22;54122;53.538;49.366;2022-10-31T09:20:32;7.70;56.50
67196;DHT22;54122;53.538;49.366;2022-10-31T09:23:00;7.60;56.80
67196;DHT22;54122;53.538;49.366;2022-10-31T09:25:27;7.50;57.50
67196;DHT22;54122;53.538;49.366;2022-10-31T09:27:58;7.40;57.60
67196;DHT22;54122;53.538;49.366;2022-10-31T09:30:25;7.30;58.10
67196;DHT22;54122;53.538;49.366;2022-10-31T09:32:56;7.10;57.80
67196;DHT22;54122;53.538;49.366;2022-10-31T09:35:23;7.00;57.20
67196;DHT22;54122;53.538;49.366;2022-10-31T09:38:00;6.80;57.30
67196;DHT22;54122;53.538;49.366;2022-10-31T09:40:36;6.80;56.70
67196;DHT22;54122;53.538;49.366;2022-10-31T09:48:44;6.80;55.40
67196;DHT22;54122;53.538;49.366;2022-10-31T09:56:26;7.00;54.40
67196;DHT22;54122;53.538;49.366;2022-10-31T09:58:58;7.00;54.80
67196;DHT22;54122;53.538;49.366;2022-10-31T10:04:19;7.00;53.70
67196;DHT22;54122;53.538;49.366;2022-10-31T10:06:49;7.10;53.40
67196;DHT22;54122;53.538;49.366;2022-10-31T10:09:18;7.20;53.30
67196;DHT22;54122;53.538;49.366;2022-10-31T10:11:52;7.30;52.90
67196;DHT22;54122;53.538;49.366;2022-10-31T10:14:29;7.40;52.20
67196;DHT22;54122;53.538;49.366;2022-10-31T10:22:55;7.00;52.50
67196;DHT22;54122;53.538;49.366;2022-10-31T10:25:34;7.00;53.40
67196;DHT22;54122;53.538;49.366;2022-10-31T10:28:32;6.90;52.60
67196;DHT22;54122;53.538;49.366;2022-10-31T10:31:16;6.90;53.10
67196;DHT22;54122;53.538;49.366;2022-10-31T10:37:05;6.80;54.10
67196;DHT22;54122;53.538;49.366;2022-10-31T10:39:40;6.70;54.20
67196;DHT22;54122;53.538;49.366;2022-10-31T10:42:13;6.80;54.20
67196;DHT22;54122;53.538;49.366;2022-10-31T10:45:00;6.80;54.60
67196;DHT22;54122;53.538;49.366;2022-10-31T10:47:56;6.80;55.30
67196;DHT22;54122;53.538;49.366;2022-10-31T10:50:30;6.80;54.90
67196;DHT22;54122;53.538;49.366;2022-10-31T10:53:31;6.80;53.60
67196;DHT22;54122;53.538;49.366;2022-10-31T10:56:29;6.70;54.20
67196;DHT22;54122;53.538;49.366;2022-10-31T10:58:57;6.60;54.70
67196;DHT22;54122;53.538;49.366;2022-10-31T11:01:24;6.60;54.50
67196;DHT22;54122;53.538;49.366;2022-10-31T11:03:50;6.60;54.80
67196;DHT22;54122;53.538;49.366;2022-10-31T11:06:22;6.50;54.60
67196;DHT22;54122;53.538;49.366;2022-10-31T11:08:52;6.60;54.50
67196;DHT22;54122;53.538;49.366;2022-10-31T11:11:25;6.60;54.60
67196;DHT22;54122;53.538;49.366;2022-10-31T11:14:11;6.60;55.50
67196;DHT22;54122;53.538;49.366;2022-10-31T11:16:40;6.70;55.60
67196;DHT22;54122;53.538;49.366;2022-10-31T11:19:26;6.70;54.50
67196;DHT22;54122;53.538;49.366;2022-10-31T11:21:53;6.80;54.60
67196;DHT22;54122;53.538;49.366;2022-10-31T11:24:22;6.80;54.20
67196;DHT22;54122;53.538;49.366;2022-10-31T11:26:50;6.80;53.20
67196;DHT22;54122;53.538;49.366;2022-10-31T11:29:24;6.90;53.20
67196;DHT22;54122;53.538;49.366;2022-10-31T11:31:56;6.90;52.70
67196;DHT22;54122;53.538;49.366;2022-10-31T11:34:30;6.80;52.60
67196;DHT22;54122;53.538;49.366;2022-10-31T11:40:34;6.70;52.50
67196;DHT22;54122;53.538;49.366;2022-10-31T11:42:40;6.60;53.20
67196;DHT22;54122;53.538;49.366;2022-10-31T11:45:29;6.60;53.80
67196;DHT22;54122;53.538;49.366;2022-10-31T11:47:56;6.40;53.80
67196;DHT22;54122;53.538;49.366;2022-10-31T11:50:26;6.40;54.20
67196;DHT22;54122;53.538;49.366;2022-10-31T11:52:53;6.30;53.90
67196;DHT22;54122;53.538;49.366;2022-10-31T11:55:34;6.30;54.30
67196;DHT22;54122;53.538;49.366;2022-10-31T11:58:02;6.20;54.60
67196;DHT22;54122;53.538;49.366;2022-10-31T12:00:36;6.10;54.90
67196;DHT22;54122;53.538;49.366;2022-10-31T12:06:07;6.00;56.60
67196;DHT22;54122;53.538;49.366;2022-10-31T12:08:35;5.90;57.70
67196;DHT22;54122;53.538;49.366;2022-10-31T12:33:32;5.40;59.70
67196;DHT22;54122;53.538;49.366;2022-10-31T12:39:25;5.30;60.20
67196;DHT22;54122;53.538;49.366;2022-10-31T12:50:26;5.20;62.10
67196;DHT22;54122;53.538;49.366;2022-10-31T12:53:10;5.10;62.20
67196;DHT22;54122;53.538;49.366;2022-10-31T12:58:24;4.80;63.00
67196;DHT22;54122;53.538;49.366;2022-10-31T13:01:02;4.70;63.40
67196;DHT22;54122;53.538;49.366;2022-10-31T13:03:45;4.70;63.90
67196;DHT22;54122;53.538;49.366;2022-10-31T13:06:18;4.70;64.30
67196;DHT22;54122;53.538;49.366;2022-10-31T13:08:53;4.70;64.30
67196;DHT22;54122;53.538;49.366;2022-10-31T13:11:25;4.70;64.40
67196;DHT22;54122;53.538;49.366;2022-10-31T13:16:40;4.70;64.20
67196;DHT22;54122;53.538;49.366;2022-10-31T13:19:21;4.70;64.10
67196;DHT22;54122;53.538;49.366;2022-10-31T13:22:15;4.70;64.70
67196;DHT22;54122;53.538;49.366;2022-10-31T13:33:04;4.60;65.40
67196;DHT22;54122;53.538;49.366;2022-10-31T13:36:03;4.60;65.60
67196;DHT22;54122;53.538;49.366;2022-10-31T13:39:02;4.60;65.70
67196;DHT22;54122;53.538;49.366;2022-10-31T13:41:48;4.50;66.00
67196;DHT22;54122;53.538;49.366;2022-10-31T13:44:24;4.50;66.50
67196;DHT22;54122;53.538;49.366;2022-10-31T13:46:53;4.40;66.50
67196;DHT22;54122;53.538;49.366;2022-10-31T13:52:11;4.40;66.90
67196;DHT22;54122;53.538;49.366;2022-10-31T13:54:40;4.40;66.80
67196;DHT22;54122;53.538;49.366;2022-10-31T13:59:54;4.40;67.10
67196;DHT22;54122;53.538;49.366;2022-10-31T14:02:30;4.40;67.10
67196;DHT22;54122;53.538;49.366;2022-10-31T14:05:03;4.40;67.30
67196;DHT22;54122;53.538;49.366;2022-10-31T14:07:30;4.40;67.70
67196;DHT22;54122;53.538;49.366;2022-10-31T14:10:03;4.40;67.80
67196;DHT22;54122;53.538;49.366;2022-10-31T14:15:26;4.40;68.20
67196;DHT22;54122;53.538;49.366;2022-10-31T14:17:57;4.40;68.20
67196;DHT22;54122;53.538;49.366;2022-10-31T14:20:48;4.40;68.30
67196;DHT22;54122;53.538;49.366;2022-10-31T14:23:39;4.40;68.10
67196;DHT22;54122;53.538;49.366;2022-10-31T14:28:49;4.40;67.90
67196;DHT22;54122;53.538;49.366;2022-10-31T14:31:45;4.40;68.20
67196;DHT22;54122;53.538;49.366;2022-10-31T14:40:00;4.40;67.50
67196;DHT22;54122;53.538;49.366;2022-10-31T14:42:46;4.40;67.40
67196;DHT22;54122;53.538;49.366;2022-10-31T14:51:00;4.40;68.80
67196;DHT22;54122;53.538;49.366;2022-10-31T14:53:32;4.40;67.60
67196;DHT22;54122;53.538;49.366;2022-10-31T14:56:00;4.40;67.30
67196;DHT22;54122;53.538;49.366;2022-10-31T14:58:39;4.40;67.10
67196;DHT22;54122;53.538;49.366;2022-10-31T15:01:07;4.40;66.70
67196;DHT22;54122;53.538;49.366;2022-10-31T15:03:43;4.30;66.70
67196;DHT22;54122;53.538;49.366;2022-10-31T15:06:13;4.30;66.60
67196;DHT22;54122;53.538;49.366;2022-10-31T15:08:51;4.20;66.90
67196;DHT22;54122;53.538;49.366;2022-10-31T15:11:23;4.20;66.90
67196;DHT22;54122;53.538;49.366;2022-10-31T15:16:24;4.20;67.00
67196;DHT22;54122;53.538;49.366;2022-10-31T15:21:21;4.20;67.00
67196;DHT22;54122;53.538;49.366;2022-10-31T15:23:52;4.20;67.70
67196;DHT22;54122;53.538;49.366;2022-10-31T15:26:21;4.20;66.40
67196;DHT22;54122;53.538;49.366;2022-10-31T15:29:02;4.20;67.50
67196;DHT22;54122;53.538;49.366;2022-10-31T15:31:30;4.20;66.40
67196;DHT22;54122;53.538;49.366;2022-10-31T15:34:02;4.20;66.40
67196;DHT22;54122;53.538;49.366;2022-10-31T15:36:29;4.20;65.80
67196;DHT22;54122;53.538;49.366;2022-10-31T15:38:56;4.20;65.50
67196;DHT22;54122;53.538;49.366;2022-10-31T15:44:10;4.20;66.00
67196;DHT22;54122;53.538;49.366;2022-10-31T15:46:38;4.10;66.10
67196;DHT22;54122;53.538;49.366;2022-10-31T15:49:27;4.10;66.30
67196;DHT22;54122;53.538;49.366;2022-10-31T15:52:06;4.10;66.40
67196;DHT22;54122;53.538;49.366;2022-10-31T15:58:10;4.10;66.50
67196;DHT22;54122;53.538;49.366;2022-10-31T16:00:38;4.00;66.50
67196;DHT22;54122;53.538;49.366;2022-10-31T16:05:50;3.90;67.10
67196;DHT22;54122;53.538;49.366;2022-10-31T16:08:36;3.90;67.30
67196;DHT22;54122;53.538;49.366;2022-10-31T16:13:34;3.90;68.40
67196;DHT22;54122;53.538;49.366;2022-10-31T16:16:04;3.80;68.00
67196;DHT22;54122;53.538;49.366;2022-10-31T16:18:38;3.80;67.90
67196;DHT22;54122;53.538;49.366;2022-10-31T16:21:06;3.90;67.60
67196;DHT22;54122;53.538;49.366;2022-10-31T16:23:33;3.80;67.70
67196;DHT22;54122;53.538;49.366;2022-10-31T16:26:05;3.90;67.70
67196;DHT22;54122;53.538;49.366;2022-10-31T16:28:33;3.90;67.80
67196;DHT22;54122;53.538;49.366;2022-10-31T16:31:01;3.90;68.00
67196;DHT22;54122;53.538;49.366;2022-10-31T16:33:38;3.90;68.20
67196;DHT22;54122;53.538;49.366;2022-10-31T16:39:00;3.90;67.60
67196;DHT22;54122;53.538;49.366;2022-10-31T16:41:26;3.90;67.30
67196;DHT22;54122;53.538;49.366;2022-10-31T16:43:54;3.90;67.00
67196;DHT22;54122;53.538;49.366;2022-10-31T16:46:27;4.00;67.10
67196;DHT22;54122;53.538;49.366;2022-10-31T16:48:54;4.00;67.20
67196;DHT22;54122;53.538;49.366;2022-10-31T16:51:21;3.90;67.10
67196;DHT22;54122;53.538;49.366;2022-10-31T16:53:49;3.90;67.20
67196;DHT22;54122;53.538;49.366;2022-10-31T16:56:36;4.00;67.60
67196;DHT22;54122;53.538;49.366;2022-10-31T16:59:06;4.00;67.30
67196;DHT22;54122;53.538;49.366;2022-10-31T17:01:35;4.00;67.40
67196;DHT22;54122;53.538;49.366;2022-10-31T17:04:02;4.00;67.80
67196;DHT22;54122;53.538;49.366;2022-10-31T17:06:29;4.00;67.60
67196;DHT22;54122;53.538;49.366;2022-10-31T17:08:55;4.00;67.10
67196;DHT22;54122;53.538;49.366;2022-10-31T17:11:23;4.00;67.00
67196;DHT22;54122;53.538;49.366;2022-10-31T17:13:51;4.00;67.20
67196;DHT22;54122;53.538;49.366;2022-10-31T17:16:18;4.00;67.40
67196;DHT22;54122;53.538;49.366;2022-10-31T17:18:44;4.00;67.30
67196;DHT22;54122;53.538;49.366;2022-10-31T17:21:21;4.00;67.20
67196;DHT22;54122;53.538;49.366;2022-10-31T17:23:51;4.00;67.40
67196;DHT22;54122;53.538;49.366;2022-10-31T17:26:18;4.00;67.10
67196;DHT22;54122;53.538;49.366;2022-10-31T17:28:45;4.00;67.20
67196;DHT22;54122;53.538;49.366;2022-10-31T17:31:28;4.00;67.00
67196;DHT22;54122;53.538;49.366;2022-10-31T17:33:55;4.00;67.10
67196;DHT22;54122;53.538;49.366;2022-10-31T17:36:22;4.00;67.30
67196;DHT22;54122;53.538;49.366;2022-10-31T17:38:48;4.00;67.20
67196;DHT22;54122;53.538;49.366;2022-10-31T17:41:14;4.00;67.20
67196;DHT22;54122;53.538;49.366;2022-10-31T17:43:43;4.00;67.20
67196;DHT22;54122;53.538;49.366;2022-10-31T17:46:12;4.00;67.30
67196;DHT22;54122;53.538;49.366;2022-10-31T17:48:38;4.00;67.10
67196;DHT22;54122;53.538;49.366;2022-10-31T17:51:06;4.00;67.30
67196;DHT22;54122;53.538;49.366;2022-10-31T17:53:33;3.90;67.40
67196;DHT22;54122;53.538;49.366;2022-10-31T17:56:03;3.90;67.80
67196;DHT22;54122;53.538;49.366;2022-10-31T17:58:30;3.90;68.10
67196;DHT22;54122;53.538;49.366;2022-10-31T18:00:57;3.90;68.00
67196;DHT22;54122;53.538;49.366;2022-10-31T18:03:24;3.90;67.90
67196;DHT22;54122;53.538;49.366;2022-10-31T18:05:55;3.90;68.20
67196;DHT22;54122;53.538;49.366;2022-10-31T18:08:27;3.90;68.40
67196;DHT22;54122;53.538;49.366;2022-10-31T18:10:54;3.90;68.40
67196;DHT22;54122;53.538;49.366;2022-10-31T18:13:21;3.90;68.70
67196;DHT22;54122;53.538;49.366;2022-10-31T18:15:48;3.90;68.80
67196;DHT22;54122;53.538;49.366;2022-10-31T18:18:17;3.90;68.60
67196;DHT22;54122;53.538;49.366;2022-10-31T18:20:43;3.90;68.30
67196;DHT22;54122;53.538;49.366;2022-10-31T18:23:10;3.90;68.70
67196;DHT22;54122;53.538;49.366;2022-10-31T18:25:38;3.90;69.20
67196;DHT22;54122;53.538;49.366;2022-10-31T18:28:06;3.80;69.40
67196;DHT22;54122;53.538;49.366;2022-10-31T18:30:38;3.80;69.50